Relevés horaires Bierset (Belgique)


Relevés horaires à Bierset - Jeudi 01 Avr. 2021
Heure UTC1 Température [°C] Vent [km/h] Hum. [%] Pres.4 [hPa] Visi. [Km] Nébu. [octa] Préc.5 [mm] Cond.
2m. Res. Ros. Dir.2 Vit. Moy. Raf.3
23:00 6.0 5 2.2 N 5.6 7.4 11.1 77 1024.9(1.0/3h) 20 0/8 -- --
22:00 7.5 6.2 2.7 N 7.4 9.3 14.8 72 1024.5(1.4/3h) 20 0/8 -- --
21:00 9.0 7.6 3.4 N 9.3 11.1 14.8 68 1024.2(1.9/3h) 20 0/8 -- --
20:00 10.5 9.7 4.1 N 7.4 9.3 13.0 65 1023.5(1.6/3h) 20 0/8 -- --
19:00 11.9 11 6.6 NE 9.3 11.1 14.8 70 1022.7(1.5/3h) 20 0/8 -- --
18:00 14.0 13.5 6.9 NE 9.3 11.1 16.7 62 1021.8(1.1/3h) 20 0/8 0/12h
--
17:00 15.4 15.2 7.1 NE 9.3 11.1 16.7 58 1021.5(0.9/3h) 12 0/8 -- --
16:00 17.8 17.8 8.6 N 11.1 11.1 16.7 55 1020.8(-0.1/3h) 8 0/8 -- --
15:00 19.8 19.8 8.3 N 9.3 11.1 16.7 47 1020.3(-0.4/3h) 12 0/8 -- --
14:00 20.7 20.7 7.2 N 5.6 7.4 13.0 42 1020.2(-0.6/3h) 12 0/8 -- --
13:00 20.2 20.2 6.7 NNO 7.4 7.4 11.1 41 1020.5(-0.5/3h) 10 1/8 -- --
12:00 19.6 19.6 6.6 N 5.6 5.6 13.0 43 1020.8(0.1/3h) 9 1/8 0/6h
--
11:00 19.1 19.1 6.2 N 3.7 5.6 11.1 43 1020.9(0.2/3h) 10 1/8 -- --
10:00 18.0 18.0 6.3 N 3.7 3.7 7.4 46 1021.1(0.7/3h) 10 1/8 -- --
09:00 16.0 16.0 7.6 NNO 1.9 5.6 13.0 57 1021.2(0.8/3h) 11 3/8 -- --
08:00 14.0 14.0 6.8 NNO 0.0 3.7 11.1 62 1021(0.9/3h) 20 5/8 -- --
07:00 12.0 12.0 5.7 SSE 3.7 5.6 13.0 65 1020.9(0.8/3h) 20 7/8 -- --
06:00 11.6 11.4 6.0 SSE 5.6 5.6 13.0 68 1020.6(0.6/3h) 20 7/8 0/12h
--
05:00 11.5 11.3 6.4 SSE 5.6 5.6 9.3 71 1020.3(-0.2/3h) 16 6/8 -- --
04:00 11.8 11.8 6.3 SSE 3.7 3.7 9.3 69 1020.1(-0.3/3h) 16 6/8 -- --
03:00 12.0 12.0 6.3 NNO 0.0 5.6 9.3 68 1020(-0.8/3h) 16 6/8 -- --
02:00 12.0 12.0 6.3 NNO 1.9 5.6 7.4 68 1020.1(-0.8/3h) 16 6/8 -- --
01:00 12.4 12.4 6.6 SSE 3.7 5.6 9.3 68 1020.4(-0.2/3h) 16 5/8 -- --
00:00 14.6 14.6 5.3 NNO 0.0 3.7 9.3 54 1020.6(0.2/3h) 18 2/8 0/6h
0/24h
--

1 Coordinated Universal Time. Actuellement il est 10:00 locale et 08:00 UTC.

2 Le vent souffle depuis la direction indiquée vers la direction oposée.

3 Les rafales max. sont disponible 40 min après l'heure du relevé.

4 Pour les stations d'altitude (plus de 600m) le géopotentiel du niveau le plus proche de la pression obligatoire est indiqué.

5 Les stations disposant d'un diffuseur peuvent indiquer "trace". Cela signifie que des précipitations ont touchés le sol mais que la quantité est inférieure à 0.1 mm.

Récapitulatif de la journée
Température [°C] Vent [km/h] Ensoleillement4 [h] Precipitations totale5 [mm] Pression [Hpa]
Min1 Max.2 Moy.3 Max. Min Max.
10.7 20.8 7.2 16.7 0 h 0 min 0 1020.0 1024.9

1 Température minimale relevée entre 18:00 UTC la veille et 18:00 UTC le jour donné.

2 Température maximale relevée entre 06:00 UTC le jour donné et 06:00 UTC le lendemain.

3 Vent moyen de la journée basé sur les relevés horaires.

4 Ensoleillement en heures relevé entre 06:00 UTC la veille et 06:00 UTC le jour donné.

5 Précipitations totales tombées entre 06:00 UTC la jour donné et 06:00 UTC le lendemain.

Graphiques horaires